Time;durP1;ratioP1;P1;durP2;ratioP2;P2;SDS_P1;SDS_P2;PMS_P1;PMS_P2;Temp;Humidity;BMP_temperature;BMP_pressure;BME280_temperature;BME280_humidity;BME280_pressure;Samples;Min_cycle;Max_cycle;Signal;HPM_P1;HPM_P2
2021/11/15 00:00:37;;;;;;;10.50;6.20;;;11.30;1.00;;;;;;5041775;28;21186;-79
2021/11/15 00:03:06;;;;;;;16.43;7.47;;;11.40;1.00;;;;;;5035145;28;20993;-82
2021/11/15 00:05:35;;;;;;;9.40;4.70;;;11.40;1.00;;;;;;5048745;28;20493;-79
2021/11/15 00:08:04;;;;;;;9.70;5.23;;;11.40;1.00;;;;;;5046994;28;20522;-79
2021/11/15 00:10:32;;;;;;;10.30;5.90;;;11.40;1.00;;;;;;5050281;28;20482;-81
2021/11/15 00:13:00;;;;;;;10.63;5.27;;;11.30;1.00;;;;;;5048246;28;20529;-80
2021/11/15 00:15:29;;;;;;;13.03;5.70;;;11.30;1.00;;;;;;5054370;28;20466;-79
2021/11/15 00:17:58;;;;;;;10.63;6.37;;;11.40;1.00;;;;;;5040686;28;20476;-78
2021/11/15 00:20:28;;;;;;;12.20;6.80;;;11.30;1.00;;;;;;5052879;28;20523;-80
2021/11/15 00:22:57;;;;;;;12.83;6.83;;;11.30;1.00;;;;;;5043530;28;20463;-80
2021/11/15 00:25:25;;;;;;;12.07;6.03;;;11.30;1.00;;;;;;5045671;28;20462;-78
2021/11/15 00:27:54;;;;;;;11.07;6.90;;;11.30;1.00;;;;;;5046680;28;20440;-78
2021/11/15 00:30:23;;;;;;;16.73;9.40;;;11.30;24.30;;;;;;5048838;28;20524;-78
2021/11/15 00:32:51;;;;;;;12.67;6.60;;;11.30;25.40;;;;;;5044411;28;20455;-78
2021/11/15 00:35:19;;;;;;;13.07;6.57;;;11.30;9.30;;;;;;5042818;28;20459;-79
2021/11/15 00:37:49;;;;;;;9.10;6.17;;;11.20;26.10;;;;;;5040978;28;20503;-78
2021/11/15 00:40:19;;;;;;;10.57;6.33;;;11.30;24.20;;;;;;5043198;28;20482;-81
2021/11/15 00:42:47;;;;;;;11.43;6.00;;;11.20;45.60;;;;;;5042520;28;20452;-81
2021/11/15 00:45:18;;;;;;;13.07;6.20;;;11.20;78.60;;;;;;5046525;28;20451;-80
2021/11/15 00:47:47;;;;;;;19.60;9.70;;;11.30;91.90;;;;;;5049571;28;20451;-78
2021/11/15 00:50:18;;;;;;;13.70;7.70;;;11.20;54.80;;;;;;5049376;28;20482;-79
2021/11/15 00:52:49;;;;;;;12.53;7.10;;;11.20;98.10;;;;;;5044519;28;20458;-79
2021/11/15 00:55:21;;;;;;;11.30;6.33;;;11.20;99.90;;;;;;5043619;28;20456;-78
2021/11/15 00:57:49;;;;;;;12.23;6.60;;;11.20;99.90;;;;;;5043472;28;20463;-80
2021/11/15 01:00:19;;;;;;;13.90;6.97;;;11.10;99.90;;;;;;5044517;28;20488;-80
2021/11/15 01:02:48;;;;;;;10.30;6.03;;;11.20;99.90;;;;;;5048985;28;20456;-77
2021/11/15 01:05:17;;;;;;;12.10;5.87;;;11.20;99.90;;;;;;5043582;28;20547;-81
2021/11/15 01:07:46;;;;;;;9.93;6.47;;;11.20;99.90;;;;;;5044278;28;20463;-78
2021/11/15 01:10:18;;;;;;;10.83;6.00;;;11.20;99.90;;;;;;5041863;28;20484;-80
2021/11/15 01:12:47;;;;;;;9.50;6.13;;;11.20;99.90;;;;;;5046552;28;20451;-77
2021/11/15 01:15:17;;;;;;;10.00;6.40;;;11.20;99.90;;;;;;5043750;28;20459;-79
2021/11/15 01:17:46;;;;;;;9.90;5.63;;;11.20;99.90;;;;;;5051119;28;20484;-81
2021/11/15 01:20:17;;;;;;;7.93;4.63;;;11.20;99.90;;;;;;5042985;28;20903;-79
2021/11/15 01:22:46;;;;;;;13.10;6.70;;;11.10;99.90;;;;;;5048347;28;20463;-79
2021/11/15 01:25:16;;;;;;;10.30;6.10;;;11.10;99.90;;;;;;5043908;28;20452;-79
2021/11/15 01:27:45;;;;;;;11.93;6.50;;;11.10;99.90;;;;;;5047714;28;20456;-80
2021/11/15 01:30:16;;;;;;;9.00;5.67;;;11.10;99.90;;;;;;5047960;28;20482;-79
2021/11/15 01:32:45;;;;;;;12.50;6.97;;;11.10;99.90;;;;;;5045486;28;20449;-78
2021/11/15 01:35:13;;;;;;;8.43;5.50;;;11.00;99.90;;;;;;5049468;28;20444;-79
2021/11/15 01:37:42;;;;;;;11.00;5.60;;;11.10;99.90;;;;;;5044853;28;20480;-78
2021/11/15 01:40:13;;;;;;;11.70;5.73;;;11.20;99.90;;;;;;5045472;28;20480;-80
2021/11/15 01:42:44;;;;;;;11.63;5.30;;;11.20;45.70;;;;;;5044754;28;20467;-82
2021/11/15 01:45:13;;;;;;;12.03;5.43;;;11.20;55.10;;;;;;5047883;28;20474;-80
2021/11/15 01:47:42;;;;;;;11.37;4.30;;;11.20;16.60;;;;;;5056916;28;20469;-80
2021/11/15 01:50:15;;;;;;;12.90;6.47;;;11.10;40.40;;;;;;5047306;28;20479;-80
2021/11/15 01:52:44;;;;;;;9.00;5.53;;;11.10;65.50;;;;;;5044709;28;20911;-80
2021/11/15 01:55:13;;;;;;;8.47;4.90;;;11.20;14.30;;;;;;5045327;28;20523;-78
2021/11/15 01:57:44;;;;;;;8.13;5.50;;;11.20;1.00;;;;;;5044168;28;20478;-80
2021/11/15 02:00:17;;;;;;;8.70;5.23;;;11.10;13.10;;;;;;5047818;28;20494;-79
2021/11/15 02:02:45;;;;;;;15.33;7.37;;;11.10;10.70;;;;;;5044933;28;20461;-79
2021/11/15 02:05:13;;;;;;;9.80;4.60;;;11.10;53.60;;;;;;5044812;28;20547;-78
2021/11/15 02:07:42;;;;;;;10.07;4.77;;;11.10;25.90;;;;;;5046274;28;20459;-80
2021/11/15 02:10:12;;;;;;;9.77;5.07;;;11.10;27.80;;;;;;5040034;28;21013;-78
2021/11/15 02:12:41;;;;;;;9.83;5.40;;;11.10;1.00;;;;;;5047327;28;20535;-78
2021/11/15 02:15:13;;;;;;;9.73;5.20;;;11.10;1.00;;;;;;5051262;28;20462;-79
2021/11/15 02:17:42;;;;;;;8.97;5.90;;;11.00;1.00;;;;;;5051165;28;20491;-79
2021/11/15 02:20:15;;;;;;;8.90;5.43;;;11.10;1.00;;;;;;5047685;28;20479;-79
2021/11/15 02:22:43;;;;;;;12.00;5.17;;;11.00;1.00;;;;;;5045011;28;20451;-77
2021/11/15 02:25:13;;;;;;;7.50;5.33;;;11.10;1.00;;;;;;5048943;28;20466;-79
2021/11/15 02:27:41;;;;;;;10.00;5.00;;;11.00;1.00;;;;;;5040062;28;20448;-77
2021/11/15 02:30:13;;;;;;;9.87;4.83;;;11.00;1.00;;;;;;5046853;28;20550;-79
2021/11/15 02:32:42;;;;;;;8.03;3.90;;;11.00;1.00;;;;;;5048438;28;20459;-78
2021/11/15 02:35:12;;;;;;;11.53;5.57;;;11.00;1.00;;;;;;5044107;28;21071;-80
2021/11/15 02:37:42;;;;;;;7.57;5.07;;;11.00;1.00;;;;;;5038043;28;20470;-79
2021/11/15 02:40:12;;;;;;;12.23;4.87;;;11.10;1.00;;;;;;5043723;28;20482;-79
2021/11/15 02:42:42;;;;;;;11.37;5.53;;;11.00;1.00;;;;;;5042903;28;20464;-78
2021/11/15 02:45:12;;;;;;;6.37;4.10;;;11.00;1.00;;;;;;5042099;28;20445;-80
2021/11/15 02:47:40;;;;;;;9.83;5.53;;;11.00;1.00;;;;;;5052271;28;20448;-81
2021/11/15 02:50:13;;;;;;;9.37;5.90;;;11.00;1.00;;;;;;5051473;28;20455;-79
2021/11/15 02:52:44;;;;;;;5.50;4.03;;;11.00;1.00;;;;;;5044185;28;20457;-81
2021/11/15 02:55:13;;;;;;;7.57;4.20;;;10.90;1.00;;;;;;5046704;28;20455;-80
2021/11/15 02:57:41;;;;;;;7.47;3.60;;;10.90;1.00;;;;;;5047624;28;20462;-79
2021/11/15 03:00:19;;;;;;;6.40;3.93;;;11.00;1.00;;;;;;5049949;28;20487;-82
2021/11/15 03:02:48;;;;;;;9.57;4.60;;;11.00;1.00;;;;;;5042687;28;20465;-81
2021/11/15 03:05:21;;;;;;;8.30;4.80;;;11.00;1.00;;;;;;5044557;28;20983;-80
2021/11/15 03:07:51;;;;;;;5.73;3.30;;;10.90;1.00;;;;;;5046581;28;20568;-80
2021/11/15 03:10:19;;;;;;;7.50;4.17;;;11.00;1.00;;;;;;5042248;28;20546;-79
2021/11/15 03:12:48;;;;;;;8.13;3.80;;;10.90;1.00;;;;;;5049411;28;20987;-80
2021/11/15 03:15:25;;;;;;;7.10;3.77;;;10.90;1.00;;;;;;5043434;28;20510;-80
2021/11/15 03:17:59;;;;;;;7.33;4.20;;;11.00;1.00;;;;;;5041763;28;20568;-79
2021/11/15 03:20:29;;;;;;;6.03;2.90;;;11.00;1.00;;;;;;5045618;28;20496;-79
2021/11/15 03:22:59;;;;;;;5.03;3.70;;;11.10;1.00;;;;;;5046993;28;20467;-80
2021/11/15 03:25:28;;;;;;;5.03;3.23;;;11.10;1.00;;;;;;5043863;28;20461;-79
2021/11/15 03:27:57;;;;;;;5.67;2.93;;;11.00;1.00;;;;;;5038149;28;20987;-81
2021/11/15 03:30:27;;;;;;;7.20;4.00;;;11.00;1.00;;;;;;5038098;28;20612;-81
2021/11/15 03:32:56;;;;;;;3.60;2.97;;;11.00;1.00;;;;;;5047589;28;20482;-81
2021/11/15 03:35:25;;;;;;;7.47;3.60;;;10.90;1.00;;;;;;5042959;28;20507;-79
2021/11/15 03:37:54;;;;;;;6.33;3.00;;;10.90;1.00;;;;;;5049372;28;20451;-81
2021/11/15 03:40:27;;;;;;;3.63;2.70;;;10.90;1.00;;;;;;5050314;28;20529;-80
2021/11/15 03:42:58;;;;;;;5.30;3.40;;;10.90;1.00;;;;;;5043253;28;20467;-82
2021/11/15 03:45:28;;;;;;;6.03;2.77;;;10.90;1.00;;;;;;5045113;28;20470;-81
2021/11/15 03:47:57;;;;;;;4.17;2.40;;;10.90;1.00;;;;;;5045402;28;20470;-78
2021/11/15 03:50:26;;;;;;;6.90;2.77;;;10.80;1.00;;;;;;5051629;28;20471;-80
2021/11/15 03:52:57;;;;;;;3.60;3.20;;;10.90;1.00;;;;;;5051158;28;20457;-80
2021/11/15 03:55:27;;;;;;;6.20;3.00;;;10.80;1.00;;;;;;5051758;28;20470;-78
2021/11/15 03:57:56;;;;;;;10.10;4.53;;;10.80;1.00;;;;;;5056339;28;20483;-79
2021/11/15 04:00:26;;;;;;;5.93;3.10;;;10.80;1.00;;;;;;5050795;28;20479;-79
2021/11/15 04:02:57;;;;;;;4.80;2.97;;;10.90;99.90;;;;;;5040586;28;20443;-81
2021/11/15 04:05:29;;;;;;;6.60;3.33;;;10.90;99.90;;;;;;5044746;28;20519;-79
2021/11/15 04:08:00;;;;;;;5.43;3.60;;;10.80;99.90;;;;;;5049779;28;20451;-80
2021/11/15 04:10:33;;;;;;;6.40;3.53;;;10.80;99.90;;;;;;5057150;28;21166;-79
2021/11/15 04:13:05;;;;;;;5.17;3.33;;;10.70;99.90;;;;;;5048138;28;20730;-80
2021/11/15 04:15:34;;;;;;;6.57;4.50;;;10.70;99.90;;;;;;5049702;28;20933;-81
2021/11/15 04:18:03;;;;;;;6.70;4.60;;;10.70;99.90;;;;;;5047718;28;20469;-81
2021/11/15 04:20:31;;;;;;;9.27;4.13;;;10.80;99.90;;;;;;5049870;28;20487;-81
2021/11/15 04:23:00;;;;;;;5.13;3.70;;;10.80;99.90;;;;;;5048585;28;20480;-82
2021/11/15 04:25:30;;;;;;;3.80;3.40;;;10.70;99.90;;;;;;5048778;28;20874;-80
2021/11/15 04:27:58;;;;;;;6.57;4.10;;;10.70;99.90;;;;;;5050619;28;20449;-80
2021/11/15 04:30:30;;;;;;;7.60;4.00;;;10.60;99.90;;;;;;5042082;28;20513;-80
2021/11/15 04:33:00;;;;;;;5.70;4.03;;;10.60;99.90;;;;;;5048097;28;20520;-81
2021/11/15 04:35:29;;;;;;;6.57;4.30;;;10.70;99.90;;;;;;5049441;28;20447;-81
2021/11/15 04:37:58;;;;;;;7.07;3.17;;;10.70;99.90;;;;;;5055000;28;20464;-80
2021/11/15 04:40:26;;;;;;;4.87;3.00;;;10.70;99.90;;;;;;5051798;28;20580;-81
2021/11/15 04:42:56;;;;;;;9.20;4.90;;;10.80;99.90;;;;;;5047964;28;20497;-81
2021/11/15 04:45:24;;;;;;;5.77;4.20;;;10.70;99.90;;;;;;5039813;28;20463;-81
2021/11/15 04:47:53;;;;;;;6.50;3.90;;;10.70;99.90;;;;;;5042482;28;20970;-81
2021/11/15 04:50:21;;;;;;;7.77;4.13;;;10.80;1.00;;;;;;5042145;28;21179;-81
2021/11/15 04:52:50;;;;;;;8.97;4.50;;;10.70;99.90;;;;;;5043522;28;20451;-79
2021/11/15 04:55:24;;;;;;;5.43;3.60;;;10.80;1.00;;;;;;5048978;28;20462;-80
2021/11/15 04:57:53;;;;;;;13.40;4.43;;;10.70;1.00;;;;;;5052183;28;20485;-81
2021/11/15 05:00:26;;;;;;;8.70;4.23;;;10.80;1.00;;;;;;5043066;28;20482;-80
2021/11/15 05:02:55;;;;;;;7.90;4.37;;;10.70;1.00;;;;;;5048110;28;20650;-79
2021/11/15 05:05:23;;;;;;;7.40;4.07;;;10.60;1.00;;;;;;5041554;28;20805;-82
2021/11/15 05:07:54;;;;;;;10.57;4.83;;;10.60;1.00;;;;;;5045365;28;20658;-80
2021/11/15 05:10:24;;;;;;;6.80;4.07;;;10.60;1.00;;;;;;5053218;28;20517;-79
2021/11/15 05:12:53;;;;;;;8.47;3.87;;;10.70;1.00;;;;;;5044128;28;20520;-81
2021/11/15 05:15:23;;;;;;;5.50;3.93;;;10.60;1.00;;;;;;5043641;28;20456;-79
2021/11/15 05:17:52;;;;;;;6.37;4.47;;;10.70;1.00;;;;;;5049929;28;20457;-80
2021/11/15 05:20:22;;;;;;;7.37;4.40;;;10.70;1.00;;;;;;5039927;28;20481;-80
2021/11/15 05:22:50;;;;;;;5.20;4.30;;;10.70;1.00;;;;;;5043198;28;20489;-80
2021/11/15 05:25:20;;;;;;;5.83;3.93;;;10.70;1.00;;;;;;5048582;28;20459;-81
2021/11/15 05:27:49;;;;;;;7.57;4.13;;;10.70;1.00;;;;;;5038648;28;20808;-80
2021/11/15 05:30:19;;;;;;;8.10;4.90;;;10.70;1.00;;;;;;5039284;28;20482;-80
2021/11/15 05:32:51;;;;;;;7.50;5.13;;;10.70;1.00;;;;;;5049836;28;20510;-80
2021/11/15 05:35:21;;;;;;;8.27;4.10;;;10.60;1.00;;;;;;5042574;28;20451;-77
2021/11/15 05:37:50;;;;;;;5.00;3.33;;;10.60;1.00;;;;;;5040759;28;20506;-81
2021/11/15 05:40:19;;;;;;;6.80;4.40;;;10.60;1.00;;;;;;5042129;28;20494;-78
2021/11/15 05:42:49;;;;;;;5.47;4.20;;;10.70;1.00;;;;;;5035761;28;20462;-79
2021/11/15 05:45:18;;;;;;;6.10;3.70;;;10.60;1.00;;;;;;5059671;28;20455;-78
2021/11/15 05:47:46;;;;;;;7.90;5.90;;;10.50;1.00;;;;;;5040178;28;20451;-78
2021/11/15 05:50:18;;;;;;;10.03;4.50;;;10.50;1.00;;;;;;5037181;28;20467;-78
2021/11/15 05:52:48;;;;;;;7.23;4.40;;;10.40;1.00;;;;;;5040719;28;20469;-79
2021/11/15 05:55:19;;;;;;;8.67;4.83;;;10.50;1.00;;;;;;5040201;28;20478;-78
2021/11/15 05:57:47;;;;;;;7.50;4.90;;;10.50;1.00;;;;;;5036794;28;20443;-78
2021/11/15 06:00:19;;;;;;;7.03;4.50;;;10.60;1.00;;;;;;5040837;28;20478;-78
2021/11/15 06:02:47;;;;;;;10.00;4.40;;;10.60;1.00;;;;;;5045665;28;20456;-78
2021/11/15 06:05:17;;;;;;;5.13;4.10;;;10.60;1.00;;;;;;5036794;28;20460;-79
2021/11/15 06:07:45;;;;;;;7.30;3.63;;;10.60;1.00;;;;;;5043736;28;20457;-79
2021/11/15 06:10:14;;;;;;;7.80;4.13;;;10.60;1.00;;;;;;5046396;28;20485;-79
2021/11/15 06:12:43;;;;;;;5.97;3.93;;;10.60;1.00;;;;;;5039861;28;20563;-80
2021/11/15 06:15:15;;;;;;;8.77;4.47;;;10.50;1.00;;;;;;5031713;28;20544;-79
2021/11/15 06:17:43;;;;;;;8.93;5.60;;;10.50;1.00;;;;;;5033170;28;20439;-79
2021/11/15 06:20:14;;;;;;;9.30;4.60;;;10.50;1.00;;;;;;5039176;28;21497;-79
2021/11/15 06:22:45;;;;;;;7.78;5.47;;;10.50;1.00;;;;;;5041195;28;20462;-79
2021/11/15 06:25:15;;;;;;;7.30;5.40;;;10.60;1.00;;;;;;5041610;28;20199;-79
2021/11/15 06:27:43;;;;;;;5.97;4.10;;;10.60;1.00;;;;;;5038669;28;20447;-79
2021/11/15 06:30:15;;;;;;;9.63;4.60;;;10.60;1.00;;;;;;5042529;28;20571;-79
2021/11/15 06:32:43;;;;;;;9.03;4.97;;;10.60;1.00;;;;;;5036420;28;20463;-79
2021/11/15 06:35:12;;;;;;;9.93;6.70;;;10.60;1.00;;;;;;5032861;28;20458;-78
2021/11/15 06:37:43;;;;;;;9.53;5.30;;;10.50;1.00;;;;;;5045098;28;20453;-78
2021/11/15 06:40:14;;;;;;;6.07;4.50;;;10.50;1.00;;;;;;5048851;28;20487;-79
2021/11/15 06:42:43;;;;;;;8.77;5.17;;;10.50;1.00;;;;;;5046948;28;20433;-80
2021/11/15 06:45:11;;;;;;;7.33;4.63;;;10.60;1.00;;;;;;5047867;28;20461;-79
2021/11/15 06:47:41;;;;;;;9.50;4.33;;;10.50;1.00;;;;;;5053807;28;21231;-80
2021/11/15 06:50:12;;;;;;;11.17;5.17;;;10.50;1.00;;;;;;5056635;28;20441;-79
2021/11/15 06:52:41;;;;;;;7.13;4.10;;;10.50;1.00;;;;;;5050449;28;20460;-78
2021/11/15 06:55:12;;;;;;;7.23;4.93;;;10.50;1.00;;;;;;5045115;28;20454;-78
2021/11/15 06:57:41;;;;;;;9.63;4.87;;;10.50;1.00;;;;;;5033267;28;20447;-78
2021/11/15 07:00:13;;;;;;;7.90;4.37;;;10.50;1.00;;;;;;5048758;28;20450;-78
2021/11/15 07:02:47;;;;;;;7.60;4.90;;;10.50;1.00;;;;;;5048201;28;20458;-80
2021/11/15 07:05:15;;;;;;;10.33;4.40;;;10.50;1.00;;;;;;5048673;28;20565;-78
2021/11/15 07:07:44;;;;;;;8.93;4.37;;;10.50;1.00;;;;;;5048541;28;20466;-78
2021/11/15 07:10:14;;;;;;;9.93;5.40;;;10.40;1.00;;;;;;5038884;28;20530;-79
2021/11/15 07:12:43;;;;;;;6.47;4.10;;;10.50;1.00;;;;;;5033489;28;20523;-78
2021/11/15 07:15:12;;;;;;;7.40;4.77;;;10.50;1.00;;;;;;5046944;28;20465;-79
2021/11/15 07:17:40;;;;;;;9.00;5.00;;;10.50;1.00;;;;;;5040708;28;20446;-78
2021/11/15 07:20:10;;;;;;;8.60;4.63;;;10.50;1.00;;;;;;5038172;28;20792;-78
2021/11/15 07:22:40;;;;;;;6.63;4.10;;;10.50;1.00;;;;;;5041032;28;20463;-78
2021/11/15 07:25:09;;;;;;;6.10;3.53;;;10.50;1.00;;;;;;5044878;28;20542;-78
2021/11/15 07:27:39;;;;;;;7.47;5.23;;;10.60;1.00;;;;;;5045860;28;20807;-79
2021/11/15 07:30:08;;;;;;;6.67;3.80;;;10.60;1.00;;;;;;5036842;28;20454;-78
2021/11/15 07:32:37;;;;;;;7.17;3.83;;;10.60;1.00;;;;;;5034867;28;20455;-79
2021/11/15 07:35:06;;;;;;;8.30;4.57;;;10.60;1.00;;;;;;5047927;28;20445;-78
2021/11/15 07:37:35;;;;;;;10.80;5.20;;;10.60;1.00;;;;;;5039137;28;20457;-80
2021/11/15 07:40:04;;;;;;;9.70;5.67;;;10.60;1.00;;;;;;5052712;28;20458;-78
2021/11/15 07:42:32;;;;;;;7.60;5.07;;;10.70;1.00;;;;;;5052577;28;20829;-78
2021/11/15 07:45:03;;;;;;;6.20;4.20;;;10.60;1.00;;;;;;5046186;28;20519;-79
2021/11/15 07:47:33;;;;;;;9.77;4.90;;;10.60;1.00;;;;;;5051110;28;20948;-78
2021/11/15 07:50:02;;;;;;;5.67;3.40;;;10.60;1.00;;;;;;5052047;28;20609;-78
2021/11/15 07:52:31;;;;;;;9.43;4.87;;;10.60;1.00;;;;;;5052552;28;20560;-78
2021/11/15 07:55:01;;;;;;;9.17;4.77;;;10.50;1.00;;;;;;5050313;28;20465;-78
2021/11/15 07:57:29;;;;;;;6.60;4.30;;;10.50;1.00;;;;;;5044209;28;20970;-79
2021/11/15 07:59:57;;;;;;;9.27;4.63;;;10.50;1.00;;;;;;5047636;28;20489;-80
2021/11/15 08:02:27;;;;;;;10.17;4.57;;;10.60;1.00;;;;;;5043187;28;20548;-79
2021/11/15 08:04:56;;;;;;;11.37;5.90;;;10.60;1.00;;;;;;5051574;28;20451;-80
2021/11/15 08:07:24;;;;;;;7.70;5.70;;;10.50;1.00;;;;;;5052268;28;20457;-79
2021/11/15 08:09:52;;;;;;;7.80;4.60;;;10.50;1.00;;;;;;5051697;28;20455;-79
2021/11/15 08:12:21;;;;;;;10.40;4.53;;;10.60;1.00;;;;;;5041636;28;20442;-79
2021/11/15 08:14:50;;;;;;;6.97;4.10;;;10.60;1.00;;;;;;5048388;28;20455;-79
2021/11/15 08:17:18;;;;;;;11.07;6.40;;;10.60;1.00;;;;;;5051864;28;20451;-79
2021/11/15 08:19:47;;;;;;;8.67;5.47;;;10.60;1.00;;;;;;5040364;28;20449;-80
2021/11/15 08:22:17;;;;;;;8.70;5.37;;;10.60;1.00;;;;;;5039043;28;21017;-77
2021/11/15 08:25:22;;;;;;;12.87;5.50;;;10.60;1.00;;;;;;5044578;28;20450;-79
2021/11/15 08:27:50;;;;;;;9.27;5.03;;;10.60;1.00;;;;;;5045706;28;20447;-79
2021/11/15 08:30:19;;;;;;;12.87;5.50;;;10.60;1.00;;;;;;5051397;28;20544;-80
2021/11/15 08:32:47;;;;;;;10.33;6.00;;;10.60;1.00;;;;;;5047856;28;20513;-79
2021/11/15 08:35:20;;;;;;;8.47;5.97;;;10.60;1.00;;;;;;5047318;28;20872;-79
2021/11/15 08:38:32;;;;;;;11.00;6.10;;;10.50;1.00;;;;;;5043455;28;20514;-78
2021/11/15 08:41:00;;;;;;;10.23;5.87;;;10.60;1.00;;;;;;5041873;28;20475;-79
2021/11/15 08:43:28;;;;;;;9.67;5.80;;;10.60;1.00;;;;;;5049360;28;20463;-79
2021/11/15 08:45:57;;;;;;;13.30;6.80;;;10.60;1.00;;;;;;5044152;28;20444;-79
2021/11/15 08:48:25;;;;;;;10.50;5.70;;;10.50;1.00;;;;;;5036315;28;20578;-79
2021/11/15 08:50:54;;;;;;;10.93;6.33;;;10.60;1.00;;;;;;5041885;28;20485;-79
2021/11/15 08:53:23;;;;;;;13.00;7.50;;;10.50;1.00;;;;;;5031531;28;20456;-78
2021/11/15 08:55:51;;;;;;;9.90;6.00;;;10.50;1.00;;;;;;5042813;28;20468;-79
2021/11/15 08:58:20;;;;;;;9.50;6.33;;;10.60;1.00;;;;;;5050909;28;20482;-80
2021/11/15 09:00:48;;;;;;;8.13;4.97;;;10.60;1.00;;;;;;5050836;28;20542;-79
2021/11/15 09:03:17;;;;;;;11.93;6.17;;;10.60;1.00;;;;;;5050102;28;20556;-80
2021/11/15 09:05:46;;;;;;;12.27;6.10;;;10.60;1.00;;;;;;5049849;28;20538;-79
2021/11/15 09:08:15;;;;;;;11.80;5.37;;;10.70;1.00;;;;;;5043190;28;20463;-80
2021/11/15 09:10:44;;;;;;;13.13;7.80;;;10.70;1.00;;;;;;5040657;28;20483;-78
2021/11/15 09:13:12;;;;;;;9.03;5.73;;;10.70;1.00;;;;;;5037151;28;20455;-79
2021/11/15 09:15:41;;;;;;;9.07;5.40;;;10.70;1.00;;;;;;5041496;28;20799;-79
2021/11/15 09:18:09;;;;;;;9.70;5.90;;;10.70;1.00;;;;;;5043019;28;20457;-79
2021/11/15 09:20:37;;;;;;;12.30;7.77;;;10.50;1.00;;;;;;5037335;28;20545;-79
2021/11/15 09:23:06;;;;;;;11.20;5.40;;;10.50;1.00;;;;;;5038899;28;20522;-79
2021/11/15 09:25:37;;;;;;;11.17;7.10;;;10.50;1.00;;;;;;5036415;28;20466;-80
2021/11/15 09:28:05;;;;;;;10.67;6.27;;;10.60;1.00;;;;;;5035601;28;20464;-80
2021/11/15 09:30:33;;;;;;;13.83;8.40;;;10.50;1.00;;;;;;5045424;28;20482;-79
2021/11/15 09:33:03;;;;;;;8.67;6.23;;;10.40;1.00;;;;;;5039837;28;20450;-80
2021/11/15 09:35:32;;;;;;;9.80;7.13;;;10.30;1.00;;;;;;5043077;28;20462;-79
2021/11/15 09:38:01;;;;;;;13.83;6.90;;;10.30;1.00;;;;;;5044750;28;20534;-80
2021/11/15 09:40:29;;;;;;;11.57;7.30;;;10.40;1.00;;;;;;5039028;28;20478;-79
2021/11/15 09:42:59;;;;;;;8.30;6.50;;;10.40;1.00;;;;;;5043582;28;20523;-80
2021/11/15 09:45:28;;;;;;;10.00;6.60;;;10.40;1.00;;;;;;5034254;28;20486;-79
2021/11/15 09:47:58;;;;;;;11.13;6.40;;;10.40;1.00;;;;;;5047221;28;21102;-79
2021/11/15 09:50:26;;;;;;;10.30;6.80;;;10.30;1.00;;;;;;5045316;28;20505;-81
2021/11/15 09:52:55;;;;;;;11.70;7.50;;;10.40;1.00;;;;;;5035723;28;20455;-79
2021/11/15 09:55:23;;;;;;;10.10;5.57;;;10.30;1.00;;;;;;5033315;28;20455;-79
2021/11/15 09:57:51;;;;;;;12.50;7.07;;;10.40;1.00;;;;;;5047271;28;20469;-80
2021/11/15 10:00:25;;;;;;;7.47;5.30;;;10.40;1.00;;;;;;5032846;28;20467;-80
2021/11/15 10:02:53;;;;;;;9.07;5.67;;;10.40;1.00;;;;;;5049083;28;20549;-79
2021/11/15 10:05:26;;;;;;;11.53;5.60;;;10.50;1.00;;;;;;5047071;28;20455;-80
2021/11/15 10:07:57;;;;;;;9.73;6.30;;;10.40;1.00;;;;;;5043172;28;20467;-80
2021/11/15 10:10:28;;;;;;;12.30;6.50;;;10.40;1.00;;;;;;5040622;28;21006;-79
2021/11/15 10:13:03;;;;;;;14.70;7.30;;;10.30;1.00;;;;;;5044973;28;20560;-80
2021/11/15 10:15:45;;;;;;;9.10;6.37;;;10.30;1.00;;;;;;5048275;28;20461;-79
2021/11/15 10:18:13;;;;;;;11.13;6.23;;;10.30;1.00;;;;;;5043299;28;20454;-80
2021/11/15 10:20:47;;;;;;;8.57;5.17;;;10.40;1.00;;;;;;5048431;28;20477;-80
2021/11/15 10:23:35;;;;;;;11.27;6.27;;;10.40;1.00;;;;;;5035375;28;20491;-79
2021/11/15 10:26:27;;;;;;;12.07;6.27;;;10.30;1.00;;;;;;5041575;28;20439;-79
2021/11/15 10:28:59;;;;;;;9.30;5.70;;;10.30;1.00;;;;;;5039218;28;20493;-79
2021/11/15 10:31:44;;;;;;;12.47;6.47;;;10.40;1.00;;;;;;5043587;28;21049;-79
2021/11/15 10:34:15;;;;;;;10.83;7.33;;;10.40;1.00;;;;;;5031669;28;21078;-79
2021/11/15 10:36:57;;;;;;;11.57;6.03;;;10.40;1.00;;;;;;5039350;28;20456;-80
2021/11/15 10:39:30;;;;;;;10.10;5.80;;;10.40;1.00;;;;;;5043757;28;20579;-78
2021/11/15 10:42:07;;;;;;;9.30;6.77;;;10.30;1.00;;;;;;5043537;28;20508;-79
2021/11/15 10:44:37;;;;;;;11.83;6.23;;;10.20;1.00;;;;;;5039696;28;20465;-79
2021/11/15 10:47:07;;;;;;;8.73;5.30;;;10.30;1.00;;;;;;5044952;28;20455;-79
2021/11/15 10:49:35;;;;;;;9.57;7.20;;;10.30;1.00;;;;;;5042686;28;20477;-79
2021/11/15 10:52:07;;;;;;;10.90;6.23;;;10.40;1.00;;;;;;5042228;28;20488;-77
2021/11/15 10:55:00;;;;;;;14.57;7.27;;;10.40;1.00;;;;;;5043886;28;20475;-79
2021/11/15 10:57:35;;;;;;;12.20;6.10;;;10.30;1.00;;;;;;5047212;28;20457;-80
2021/11/15 11:00:38;;;;;;;11.00;6.07;;;10.30;1.00;;;;;;5043803;28;20524;-80
2021/11/15 11:03:11;;;;;;;14.67;6.30;;;10.40;1.00;;;;;;5036097;28;20834;-80
2021/11/15 11:05:40;;;;;;;10.47;5.97;;;10.50;1.00;;;;;;5039885;28;20509;-81
2021/11/15 11:08:12;;;;;;;12.40;7.03;;;10.30;1.00;;;;;;5042085;28;20453;-80
2021/11/15 11:11:07;;;;;;;9.47;5.97;;;10.30;1.00;;;;;;5046327;28;20479;-78
2021/11/15 11:13:51;;;;;;;10.53;5.63;;;10.20;1.00;;;;;;5033248;28;20572;-81
2021/11/15 11:16:20;;;;;;;10.73;6.00;;;10.20;1.00;;;;;;5038330;28;20453;-79
2021/11/15 11:18:52;;;;;;;8.20;5.73;;;10.30;1.00;;;;;;5042873;28;20538;-80
2021/11/15 11:26:56;;;;;;;13.70;8.38;;;10.30;1.00;;;;;;5023449;28;20458;-77
2021/11/15 11:29:28;;;;;;;13.87;6.77;;;10.40;1.00;;;;;;5033276;28;22394;-81
2021/11/15 11:31:59;;;;;;;11.20;6.57;;;10.50;1.00;;;;;;5032356;28;21005;-80
2021/11/15 11:34:29;;;;;;;7.13;5.57;;;10.50;1.00;;;;;;5032033;28;20454;-80
2021/11/15 11:36:58;;;;;;;15.07;5.97;;;10.40;1.00;;;;;;5038419;28;20884;-79
2021/11/15 11:39:26;;;;;;;10.03;6.27;;;10.50;1.00;;;;;;5037221;28;20487;-79
2021/11/15 11:41:58;;;;;;;10.00;5.73;;;10.50;1.00;;;;;;5029925;28;20572;-81
2021/11/15 11:44:28;;;;;;;14.43;6.40;;;10.50;1.00;;;;;;5028176;28;20594;-80
2021/11/15 11:46:59;;;;;;;12.50;5.87;;;10.50;1.00;;;;;;5032614;28;20955;-80
2021/11/15 11:49:31;;;;;;;9.37;6.23;;;10.40;1.00;;;;;;5032442;28;20459;-80
2021/11/15 11:52:01;;;;;;;12.30;7.23;;;10.40;1.00;;;;;;5034329;28;21142;-79
2021/11/15 11:54:32;;;;;;;7.73;4.40;;;10.30;1.00;;;;;;5034454;28;20882;-80
2021/11/15 11:57:10;;;;;;;9.57;6.47;;;10.40;1.00;;;;;;5037690;28;20506;-82
2021/11/15 11:59:42;;;;;;;7.77;4.93;;;10.50;1.00;;;;;;5034340;28;20484;-79
2021/11/15 12:02:13;;;;;;;9.37;5.23;;;10.50;99.90;;;;;;5039088;28;21092;-79
2021/11/15 12:04:52;;;;;;;10.67;5.63;;;10.50;99.90;;;;;;5036818;28;20486;-80
2021/11/15 12:07:29;;;;;;;9.07;4.47;;;10.50;99.90;;;;;;5037596;28;20451;-82
2021/11/15 12:09:59;;;;;;;9.63;5.60;;;10.50;99.90;;;;;;5036622;28;20962;-80
2021/11/15 12:12:27;;;;;;;9.90;5.47;;;10.50;99.90;;;;;;5040968;28;20459;-80
2021/11/15 12:14:57;;;;;;;9.87;5.90;;;10.50;99.90;;;;;;5051230;28;20439;-82
2021/11/15 12:17:25;;;;;;;9.27;5.73;;;10.50;99.90;;;;;;5044158;28;20572;-80
2021/11/15 12:20:13;;;;;;;14.80;6.20;;;10.40;99.90;;;;;;5046395;28;20463;-79
2021/11/15 12:22:55;;;;;;;9.70;6.40;;;10.30;99.90;;;;;;5048000;28;20462;-80
2021/11/15 12:25:26;;;;;;;14.23;6.70;;;10.40;99.90;;;;;;5046652;28;20462;-83
2021/11/15 12:27:58;;;;;;;7.90;4.87;;;10.40;99.90;;;;;;5055979;28;20993;-81
2021/11/15 12:30:29;;;;;;;10.17;5.20;;;10.40;1.00;;;;;;5047472;28;20505;-80
2021/11/15 12:33:24;;;;;;;9.83;4.90;;;10.40;1.00;;;;;;5043408;28;20789;-82
2021/11/15 12:36:02;;;;;;;13.23;5.97;;;10.40;1.00;;;;;;5054673;28;20453;-82
2021/11/15 12:38:36;;;;;;;11.75;7.07;;;10.40;1.00;;;;;;5043247;28;20444;-85
2021/11/15 12:41:25;;;;;;;9.30;5.60;;;10.50;1.00;;;;;;5051299;28;20220;-84
2021/11/15 12:44:24;;;;;;;9.67;5.77;;;10.50;1.00;;;;;;5039794;28;20475;-84
2021/11/15 12:46:56;;;;;;;13.33;7.50;;;10.50;99.90;;;;;;5052707;28;20447;-83
2021/11/15 12:49:28;;;;;;;12.07;5.70;;;10.40;99.90;;;;;;5051201;28;20484;-81
2021/11/15 12:52:20;;;;;;;13.93;6.73;;;10.50;1.00;;;;;;5046626;28;20486;-82
2021/11/15 12:54:50;;;;;;;11.82;7.10;;;10.40;1.00;;;;;;5046065;28;20439;-81
2021/11/15 12:57:38;;;;;;;12.30;7.80;;;10.40;1.00;;;;;;5038981;28;20196;-80
2021/11/15 13:00:12;;;;;;;10.07;6.23;;;10.30;1.00;;;;;;5044921;28;20553;-82
2021/11/15 13:02:44;;;;;;;9.67;5.43;;;10.30;1.00;;;;;;5033420;28;20512;-81
2021/11/15 13:05:12;;;;;;;14.23;8.03;;;10.30;1.00;;;;;;5040719;28;20536;-83
2021/11/15 13:07:41;;;;;;;23.10;11.87;;;10.40;1.00;;;;;;5039579;28;20513;-82
2021/11/15 13:10:10;;;;;;;12.60;7.90;;;10.50;1.00;;;;;;5044037;28;20501;-83
2021/11/15 13:12:38;;;;;;;10.80;5.70;;;10.50;1.00;;;;;;5047178;28;20467;-82
2021/11/15 13:15:08;;;;;;;13.83;7.70;;;10.50;1.00;;;;;;5051212;28;20440;-84